sensor_id;sensor_type;location;lat;lon;timestamp;pressure;altitude;pressure_sealevel;temperature;humidity
80128;BME280;69440;52.118;5.408;2023-09-12T00:00:21;101441.69;;;20.69;91.11
80128;BME280;69440;52.118;5.408;2023-09-12T00:02:50;101446.59;;;20.65;91.01
80128;BME280;69440;52.118;5.408;2023-09-12T00:05:16;101439.25;;;20.66;90.44
80128;BME280;69440;52.118;5.408;2023-09-12T00:07:43;101444.00;;;20.64;90.78
80128;BME280;69440;52.118;5.408;2023-09-12T00:10:09;101434.50;;;20.58;89.85
80128;BME280;69440;52.118;5.408;2023-09-12T00:12:36;101432.06;;;20.55;90.70
80128;BME280;69440;52.118;5.408;2023-09-12T00:15:03;101429.47;;;20.54;90.93
80128;BME280;69440;52.118;5.408;2023-09-12T00:17:30;101408.88;;;20.50;90.89
80128;BME280;69440;52.118;5.408;2023-09-12T00:19:57;101417.22;;;20.48;90.86
80128;BME280;69440;52.118;5.408;2023-09-12T00:22:23;101414.03;;;20.43;91.29
80128;BME280;69440;52.118;5.408;2023-09-12T00:24:50;101422.50;;;20.40;90.62
80128;BME280;69440;52.118;5.408;2023-09-12T00:27:16;101411.38;;;20.22;91.14
80128;BME280;69440;52.118;5.408;2023-09-12T00:29:43;101412.63;;;20.18;91.69
80128;BME280;69440;52.118;5.408;2023-09-12T00:32:09;101418.28;;;20.26;91.32
80128;BME280;69440;52.118;5.408;2023-09-12T00:34:36;101415.13;;;20.21;90.89
80128;BME280;69440;52.118;5.408;2023-09-12T00:37:02;101413.72;;;19.96;91.93
80128;BME280;69440;52.118;5.408;2023-09-12T00:39:29;101413.56;;;19.98;92.07
80128;BME280;69440;52.118;5.408;2023-09-12T00:41:56;101418.22;;;20.07;91.88
80128;BME280;69440;52.118;5.408;2023-09-12T00:44:23;101414.75;;;20.05;92.13
80128;BME280;69440;52.118;5.408;2023-09-12T00:46:50;101423.06;;;20.03;91.53
80128;BME280;69440;52.118;5.408;2023-09-12T00:49:17;101430.25;;;20.04;91.91
80128;BME280;69440;52.118;5.408;2023-09-12T00:51:44;101417.75;;;20.02;91.65
80128;BME280;69440;52.118;5.408;2023-09-12T00:54:11;101428.69;;;20.02;91.34
80128;BME280;69440;52.118;5.408;2023-09-12T00:56:38;101428.94;;;19.99;91.04
80128;BME280;69440;52.118;5.408;2023-09-12T00:59:05;101432.69;;;19.98;90.62
80128;BME280;69440;52.118;5.408;2023-09-12T01:01:32;101427.16;;;19.88;89.76
80128;BME280;69440;52.118;5.408;2023-09-12T01:03:59;101425.25;;;19.79;90.98
80128;BME280;69440;52.118;5.408;2023-09-12T01:06:27;101432.41;;;19.70;89.96
80128;BME280;69440;52.118;5.408;2023-09-12T01:08:55;101437.03;;;19.59;90.44
80128;BME280;69440;52.118;5.408;2023-09-12T01:11:22;101428.25;;;19.55;90.92
80128;BME280;69440;52.118;5.408;2023-09-12T01:13:50;101430.25;;;19.53;91.40
80128;BME280;69440;52.118;5.408;2023-09-12T01:16:16;101421.31;;;19.51;91.39
80128;BME280;69440;52.118;5.408;2023-09-12T01:18:43;101429.91;;;19.46;91.41
80128;BME280;69440;52.118;5.408;2023-09-12T01:21:36;101425.84;;;19.41;90.95
80128;BME280;69440;52.118;5.408;2023-09-12T01:24:38;101428.38;;;19.33;91.06
80128;BME280;69440;52.118;5.408;2023-09-12T01:27:25;101431.63;;;19.27;91.63
80128;BME280;69440;52.118;5.408;2023-09-12T01:29:57;101434.13;;;19.30;91.20
80128;BME280;69440;52.118;5.408;2023-09-12T01:32:24;101430.28;;;19.21;91.00
80128;BME280;69440;52.118;5.408;2023-09-12T01:34:50;101423.09;;;19.20;91.38
80128;BME280;69440;52.118;5.408;2023-09-12T01:37:17;101423.97;;;19.20;90.93
80128;BME280;69440;52.118;5.408;2023-09-12T01:39:43;101421.13;;;19.22;91.54
80128;BME280;69440;52.118;5.408;2023-09-12T01:42:14;101423.97;;;19.20;91.63
80128;BME280;69440;52.118;5.408;2023-09-12T01:44:45;101434.97;;;19.30;91.15
80128;BME280;69440;52.118;5.408;2023-09-12T01:47:12;101418.25;;;19.23;91.15
80128;BME280;69440;52.118;5.408;2023-09-12T01:49:42;101424.72;;;19.22;90.89
80128;BME280;69440;52.118;5.408;2023-09-12T01:52:10;101426.44;;;19.23;91.19
80128;BME280;69440;52.118;5.408;2023-09-12T01:54:38;101426.97;;;19.17;90.63
80128;BME280;69440;52.118;5.408;2023-09-12T01:57:05;101421.50;;;19.17;90.58
80128;BME280;69440;52.118;5.408;2023-09-12T01:59:32;101415.34;;;19.15;90.92
80128;BME280;69440;52.118;5.408;2023-09-12T02:01:58;101418.06;;;19.15;91.25
80128;BME280;69440;52.118;5.408;2023-09-12T02:04:24;101424.25;;;19.17;92.64
80128;BME280;69440;52.118;5.408;2023-09-12T02:06:51;101411.22;;;19.21;92.95
80128;BME280;69440;52.118;5.408;2023-09-12T02:09:17;101415.66;;;19.22;92.38
80128;BME280;69440;52.118;5.408;2023-09-12T02:11:47;101408.75;;;19.18;92.01
80128;BME280;69440;52.118;5.408;2023-09-12T02:14:14;101414.19;;;19.18;93.00
80128;BME280;69440;52.118;5.408;2023-09-12T02:16:40;101414.34;;;19.16;92.40
80128;BME280;69440;52.118;5.408;2023-09-12T02:19:10;101411.88;;;19.13;92.96
80128;BME280;69440;52.118;5.408;2023-09-12T02:21:37;101410.81;;;19.05;94.00
80128;BME280;69440;52.118;5.408;2023-09-12T02:24:03;101409.25;;;18.91;93.25
80128;BME280;69440;52.118;5.408;2023-09-12T02:26:30;101411.50;;;18.86;94.15
80128;BME280;69440;52.118;5.408;2023-09-12T02:29:03;101405.78;;;18.89;93.88
80128;BME280;69440;52.118;5.408;2023-09-12T02:31:32;101409.38;;;18.89;93.82
80128;BME280;69440;52.118;5.408;2023-09-12T02:33:58;101409.84;;;18.95;94.34
80128;BME280;69440;52.118;5.408;2023-09-12T02:36:25;101404.66;;;18.91;93.22
80128;BME280;69440;52.118;5.408;2023-09-12T02:38:52;101414.81;;;18.89;93.08
80128;BME280;69440;52.118;5.408;2023-09-12T02:41:18;101417.81;;;18.86;93.61
80128;BME280;69440;52.118;5.408;2023-09-12T02:43:44;101423.47;;;18.95;94.13
80128;BME280;69440;52.118;5.408;2023-09-12T02:46:11;101420.53;;;18.86;94.10
80128;BME280;69440;52.118;5.408;2023-09-12T02:48:37;101414.34;;;18.84;93.77
80128;BME280;69440;52.118;5.408;2023-09-12T02:51:04;101421.94;;;18.81;93.21
80128;BME280;69440;52.118;5.408;2023-09-12T02:53:30;101417.00;;;18.75;92.92
80128;BME280;69440;52.118;5.408;2023-09-12T02:55:57;101415.41;;;18.72;92.95
80128;BME280;69440;52.118;5.408;2023-09-12T02:58:23;101414.66;;;18.70;92.26
80128;BME280;69440;52.118;5.408;2023-09-12T03:00:50;101419.00;;;18.73;92.83
80128;BME280;69440;52.118;5.408;2023-09-12T03:03:20;101417.00;;;18.75;92.69
80128;BME280;69440;52.118;5.408;2023-09-12T03:05:47;101420.97;;;18.71;92.98
80128;BME280;69440;52.118;5.408;2023-09-12T03:08:14;101420.25;;;18.69;92.42
80128;BME280;69440;52.118;5.408;2023-09-12T03:10:40;101427.41;;;18.70;92.34
80128;BME280;69440;52.118;5.408;2023-09-12T03:13:07;101428.03;;;18.62;91.54
80128;BME280;69440;52.118;5.408;2023-09-12T03:15:36;101423.19;;;18.54;91.65
80128;BME280;69440;52.118;5.408;2023-09-12T03:18:04;101423.06;;;18.56;91.93
80128;BME280;69440;52.118;5.408;2023-09-12T03:20:30;101421.59;;;18.52;91.25
80128;BME280;69440;52.118;5.408;2023-09-12T03:22:57;101435.34;;;18.50;91.46
80128;BME280;69440;52.118;5.408;2023-09-12T03:25:23;101423.72;;;18.48;91.19
80128;BME280;69440;52.118;5.408;2023-09-12T03:27:50;101424.09;;;18.44;91.43
80128;BME280;69440;52.118;5.408;2023-09-12T03:30:16;101424.50;;;18.39;92.02
80128;BME280;69440;52.118;5.408;2023-09-12T03:32:43;101420.38;;;18.45;92.42
80128;BME280;69440;52.118;5.408;2023-09-12T03:35:09;101409.25;;;18.48;92.13
80128;BME280;69440;52.118;5.408;2023-09-12T03:37:35;101413.69;;;18.49;92.21
80128;BME280;69440;52.118;5.408;2023-09-12T03:40:07;101405.53;;;18.49;91.77
80128;BME280;69440;52.118;5.408;2023-09-12T03:42:33;101416.03;;;18.53;91.82
80128;BME280;69440;52.118;5.408;2023-09-12T03:45:08;101414.03;;;18.55;91.95
80128;BME280;69440;52.118;5.408;2023-09-12T03:47:35;101419.22;;;18.58;91.97
80128;BME280;69440;52.118;5.408;2023-09-12T03:50:01;101416.63;;;18.57;91.54
80128;BME280;69440;52.118;5.408;2023-09-12T03:52:29;101410.81;;;18.61;92.15
80128;BME280;69440;52.118;5.408;2023-09-12T03:54:55;101399.91;;;18.61;92.27
80128;BME280;69440;52.118;5.408;2023-09-12T03:57:22;101402.75;;;18.60;91.74
80128;BME280;69440;52.118;5.408;2023-09-12T03:59:48;101401.66;;;18.63;92.00
80128;BME280;69440;52.118;5.408;2023-09-12T04:02:15;101412.56;;;18.63;91.42
80128;BME280;69440;52.118;5.408;2023-09-12T04:04:41;101411.94;;;18.59;91.24
80128;BME280;69440;52.118;5.408;2023-09-12T04:07:08;101408.47;;;18.57;91.42
80128;BME280;69440;52.118;5.408;2023-09-12T04:09:34;101406.47;;;18.59;91.75
80128;BME280;69440;52.118;5.408;2023-09-12T04:12:01;101406.59;;;18.57;91.73
80128;BME280;69440;52.118;5.408;2023-09-12T04:14:28;101414.91;;;18.56;91.68
80128;BME280;69440;52.118;5.408;2023-09-12T04:16:54;101409.13;;;18.49;91.56
80128;BME280;69440;52.118;5.408;2023-09-12T04:19:21;101411.63;;;18.41;91.26
80128;BME280;69440;52.118;5.408;2023-09-12T04:21:47;101403.81;;;18.37;91.95
80128;BME280;69440;52.118;5.408;2023-09-12T04:24:13;101400.59;;;18.31;92.35
80128;BME280;69440;52.118;5.408;2023-09-12T04:26:42;101396.75;;;18.34;92.63
80128;BME280;69440;52.118;5.408;2023-09-12T04:29:10;101382.91;;;18.37;92.63
80128;BME280;69440;52.118;5.408;2023-09-12T04:31:37;101389.09;;;18.39;92.64
80128;BME280;69440;52.118;5.408;2023-09-12T04:34:04;101390.19;;;18.37;92.18
80128;BME280;69440;52.118;5.408;2023-09-12T04:36:32;101394.16;;;18.33;92.08
80128;BME280;69440;52.118;5.408;2023-09-12T04:38:59;101395.28;;;18.30;91.50
80128;BME280;69440;52.118;5.408;2023-09-12T04:41:26;101398.13;;;18.28;91.29
80128;BME280;69440;52.118;5.408;2023-09-12T04:43:53;101392.56;;;18.30;92.11
80128;BME280;69440;52.118;5.408;2023-09-12T04:46:19;101382.66;;;18.29;91.95
80128;BME280;69440;52.118;5.408;2023-09-12T04:48:46;101386.16;;;18.20;91.81
80128;BME280;69440;52.118;5.408;2023-09-12T04:51:13;101391.00;;;18.16;92.45
80128;BME280;69440;52.118;5.408;2023-09-12T04:53:39;101390.13;;;18.16;92.90
80128;BME280;69440;52.118;5.408;2023-09-12T04:56:06;101398.41;;;18.14;93.46
80128;BME280;69440;52.118;5.408;2023-09-12T04:58:33;101391.50;;;18.10;92.95
80128;BME280;69440;52.118;5.408;2023-09-12T05:00:59;101386.06;;;18.10;93.11
80128;BME280;69440;52.118;5.408;2023-09-12T05:03:26;101384.19;;;18.11;93.31
80128;BME280;69440;52.118;5.408;2023-09-12T05:05:53;101378.63;;;18.12;93.29
80128;BME280;69440;52.118;5.408;2023-09-12T05:08:19;101386.66;;;18.14;93.45
80128;BME280;69440;52.118;5.408;2023-09-12T05:10:46;101388.78;;;18.10;93.44
80128;BME280;69440;52.118;5.408;2023-09-12T05:13:13;101396.56;;;17.92;93.24
80128;BME280;69440;52.118;5.408;2023-09-12T05:15:41;101383.72;;;17.94;93.30
80128;BME280;69440;52.118;5.408;2023-09-12T05:18:07;101401.38;;;17.89;92.51
80128;BME280;69440;52.118;5.408;2023-09-12T05:20:34;101400.03;;;17.94;93.07
80128;BME280;69440;52.118;5.408;2023-09-12T05:23:01;101401.63;;;17.97;92.82
80128;BME280;69440;52.118;5.408;2023-09-12T05:25:27;101402.38;;;17.99;92.52
80128;BME280;69440;52.118;5.408;2023-09-12T05:27:54;101396.56;;;17.92;92.45
80128;BME280;69440;52.118;5.408;2023-09-12T05:30:21;101404.97;;;17.89;91.70
80128;BME280;69440;52.118;5.408;2023-09-12T05:32:47;101403.25;;;17.88;91.80
80128;BME280;69440;52.118;5.408;2023-09-12T05:35:14;101402.75;;;17.83;91.60
80128;BME280;69440;52.118;5.408;2023-09-12T05:37:47;101406.97;;;17.87;92.06
80128;BME280;69440;52.118;5.408;2023-09-12T05:40:14;101402.13;;;17.91;91.44
80128;BME280;69440;52.118;5.408;2023-09-12T05:42:41;101402.13;;;17.91;92.09
80128;BME280;69440;52.118;5.408;2023-09-12T05:45:08;101416.72;;;17.90;91.73
80128;BME280;69440;52.118;5.408;2023-09-12T05:47:34;101399.28;;;17.92;92.17
80128;BME280;69440;52.118;5.408;2023-09-12T05:50:01;101407.94;;;17.97;92.60
80128;BME280;69440;52.118;5.408;2023-09-12T05:52:30;101403.97;;;18.02;92.20
80128;BME280;69440;52.118;5.408;2023-09-12T05:54:57;101404.97;;;18.00;92.09
80128;BME280;69440;52.118;5.408;2023-09-12T05:57:23;101397.41;;;18.04;92.33
80128;BME280;69440;52.118;5.408;2023-09-12T05:59:50;101395.34;;;18.08;92.07
80128;BME280;69440;52.118;5.408;2023-09-12T06:02:16;101405.22;;;18.09;92.13
80128;BME280;69440;52.118;5.408;2023-09-12T06:04:44;101414.00;;;18.12;92.46
80128;BME280;69440;52.118;5.408;2023-09-12T06:07:10;101416.47;;;18.15;92.42
80128;BME280;69440;52.118;5.408;2023-09-12T06:09:38;101419.94;;;18.17;92.22
80128;BME280;69440;52.118;5.408;2023-09-12T06:12:05;101425.38;;;18.17;91.78
80128;BME280;69440;52.118;5.408;2023-09-12T06:14:31;101431.94;;;18.15;91.54
80128;BME280;69440;52.118;5.408;2023-09-12T06:16:58;101436.88;;;18.10;91.99
80128;BME280;69440;52.118;5.408;2023-09-12T06:19:24;101428.22;;;18.05;91.81
80128;BME280;69440;52.118;5.408;2023-09-12T06:21:51;101433.28;;;17.98;91.83
80128;BME280;69440;52.118;5.408;2023-09-12T06:24:20;101425.13;;;17.98;92.25
80128;BME280;69440;52.118;5.408;2023-09-12T06:26:50;101433.66;;;18.05;92.65
80128;BME280;69440;52.118;5.408;2023-09-12T06:29:17;101443.06;;;18.12;92.72
80128;BME280;69440;52.118;5.408;2023-09-12T06:31:43;101439.22;;;18.14;92.63
80128;BME280;69440;52.118;5.408;2023-09-12T06:34:10;101442.44;;;18.19;92.84
80128;BME280;69440;52.118;5.408;2023-09-12T06:36:38;101438.47;;;18.23;92.64
80128;BME280;69440;52.118;5.408;2023-09-12T06:39:05;101438.84;;;18.30;92.80
80128;BME280;69440;52.118;5.408;2023-09-12T06:41:31;101431.28;;;18.34;92.78
80128;BME280;69440;52.118;5.408;2023-09-12T06:43:58;101436.47;;;18.37;92.89
80128;BME280;69440;52.118;5.408;2023-09-12T06:46:26;101446.25;;;18.39;93.06
80128;BME280;69440;52.118;5.408;2023-09-12T06:48:53;101436.97;;;18.42;93.06
80128;BME280;69440;52.118;5.408;2023-09-12T06:51:23;101444.16;;;18.43;93.11
80128;BME280;69440;52.118;5.408;2023-09-12T06:53:50;101441.19;;;18.46;93.54
80128;BME280;69440;52.118;5.408;2023-09-12T06:56:17;101439.44;;;18.45;93.51
80128;BME280;69440;52.118;5.408;2023-09-12T06:58:44;101436.72;;;18.45;93.07
80128;BME280;69440;52.118;5.408;2023-09-12T07:01:10;101436.59;;;18.46;93.96
80128;BME280;69440;52.118;5.408;2023-09-12T07:03:37;101445.75;;;18.45;93.83
80128;BME280;69440;52.118;5.408;2023-09-12T07:06:04;101451.69;;;18.50;93.96
80128;BME280;69440;52.118;5.408;2023-09-12T07:08:32;101452.91;;;18.57;94.56
80128;BME280;69440;52.118;5.408;2023-09-12T07:10:59;101453.41;;;18.63;94.58
80128;BME280;69440;52.118;5.408;2023-09-12T07:13:32;101451.19;;;18.68;94.26
80128;BME280;69440;52.118;5.408;2023-09-12T07:15:59;101448.47;;;18.68;94.38
80128;BME280;69440;52.118;5.408;2023-09-12T07:18:26;101447.09;;;18.73;95.02
80128;BME280;69440;52.118;5.408;2023-09-12T07:21:03;101436.28;;;18.83;94.78
80128;BME280;69440;52.118;5.408;2023-09-12T07:23:30;101433.03;;;18.89;94.70
80128;BME280;69440;52.118;5.408;2023-09-12T07:25:57;101440.22;;;18.90;95.18
80128;BME280;69440;52.118;5.408;2023-09-12T07:28:24;101446.25;;;18.93;94.95
80128;BME280;69440;52.118;5.408;2023-09-12T07:30:51;101446.75;;;18.99;95.18
80128;BME280;69440;52.118;5.408;2023-09-12T07:33:18;101451.09;;;19.01;95.21
80128;BME280;69440;52.118;5.408;2023-09-12T07:35:45;101443.38;;;19.06;95.31
80128;BME280;69440;52.118;5.408;2023-09-12T07:38:13;101445.84;;;19.09;94.94
80128;BME280;69440;52.118;5.408;2023-09-12T07:40:43;101441.13;;;19.11;95.45
80128;BME280;69440;52.118;5.408;2023-09-12T07:43:10;101441.59;;;19.16;94.87
80128;BME280;69440;52.118;5.408;2023-09-12T07:45:37;101449.50;;;19.19;95.29
80128;BME280;69440;52.118;5.408;2023-09-12T07:48:06;101452.44;;;19.28;95.14
80128;BME280;69440;52.118;5.408;2023-09-12T07:50:34;101454.00;;;19.41;96.00
80128;BME280;69440;52.118;5.408;2023-09-12T07:53:00;101448.59;;;19.51;95.07
80128;BME280;69440;52.118;5.408;2023-09-12T07:55:26;101447.44;;;19.65;94.69
80128;BME280;69440;52.118;5.408;2023-09-12T07:57:57;101447.75;;;19.71;94.46
80128;BME280;69440;52.118;5.408;2023-09-12T08:00:23;101449.63;;;19.71;94.93
80128;BME280;69440;52.118;5.408;2023-09-12T08:02:50;101452.53;;;19.79;95.35
80128;BME280;69440;52.118;5.408;2023-09-12T08:05:17;101462.50;;;19.90;94.34
80128;BME280;69440;52.118;5.408;2023-09-12T08:07:45;101461.28;;;20.03;94.57
80128;BME280;69440;52.118;5.408;2023-09-12T08:10:11;101460.91;;;20.17;94.39
80128;BME280;69440;52.118;5.408;2023-09-12T08:12:38;101461.38;;;20.23;93.78
80128;BME280;69440;52.118;5.408;2023-09-12T08:15:05;101474.94;;;20.34;93.47
80128;BME280;69440;52.118;5.408;2023-09-12T08:17:32;101464.78;;;20.45;93.23
80128;BME280;69440;52.118;5.408;2023-09-12T08:19:59;101474.91;;;20.55;92.23
80128;BME280;69440;52.118;5.408;2023-09-12T08:22:25;101471.31;;;20.64;92.43
80128;BME280;69440;52.118;5.408;2023-09-12T08:24:51;101469.03;;;20.69;91.23
80128;BME280;69440;52.118;5.408;2023-09-12T08:27:18;101476.09;;;20.81;92.11
80128;BME280;69440;52.118;5.408;2023-09-12T08:29:45;101462.47;;;20.91;91.70
80128;BME280;69440;52.118;5.408;2023-09-12T08:32:13;101471.66;;;20.99;91.42
80128;BME280;69440;52.118;5.408;2023-09-12T08:34:40;101472.28;;;21.13;91.87
80128;BME280;69440;52.118;5.408;2023-09-12T08:37:06;101467.78;;;21.12;91.38
80128;BME280;69440;52.118;5.408;2023-09-12T08:39:43;101474.41;;;21.19;91.50
80128;BME280;69440;52.118;5.408;2023-09-12T08:42:16;101472.28;;;21.32;91.22
80128;BME280;69440;52.118;5.408;2023-09-12T08:44:43;101470.69;;;21.39;90.61
80128;BME280;69440;52.118;5.408;2023-09-12T08:47:11;101464.81;;;21.44;90.62
80128;BME280;69440;52.118;5.408;2023-09-12T08:49:38;101462.19;;;21.52;89.41
80128;BME280;69440;52.118;5.408;2023-09-12T08:52:05;101468.81;;;21.59;89.10
80128;BME280;69440;52.118;5.408;2023-09-12T08:54:32;101461.47;;;21.59;89.10
80128;BME280;69440;52.118;5.408;2023-09-12T08:57:01;101466.34;;;21.65;88.39
80128;BME280;69440;52.118;5.408;2023-09-12T08:59:32;101463.59;;;21.75;89.11
80128;BME280;69440;52.118;5.408;2023-09-12T09:02:00;101466.00;;;21.88;89.11
80128;BME280;69440;52.118;5.408;2023-09-12T09:04:30;101457.50;;;21.91;87.86
80128;BME280;69440;52.118;5.408;2023-09-12T09:06:58;101458.78;;;22.06;88.85
80128;BME280;69440;52.118;5.408;2023-09-12T09:09:26;101469.00;;;21.94;86.41
80128;BME280;69440;52.118;5.408;2023-09-12T09:11:55;101467.84;;;21.97;87.19
80128;BME280;69440;52.118;5.408;2023-09-12T09:14:22;101467.72;;;22.08;87.25
80128;BME280;69440;52.118;5.408;2023-09-12T09:16:49;101466.16;;;22.06;86.99
80128;BME280;69440;52.118;5.408;2023-09-12T09:19:16;101472.75;;;21.93;85.51
80128;BME280;69440;52.118;5.408;2023-09-12T09:21:44;101474.22;;;21.88;86.65
80128;BME280;69440;52.118;5.408;2023-09-12T09:24:13;101473.78;;;21.92;86.90
80128;BME280;69440;52.118;5.408;2023-09-12T09:29:17;101483.59;;;22.05;85.60
80128;BME280;69440;52.118;5.408;2023-09-12T09:31:45;101484.84;;;22.00;85.23
80128;BME280;69440;52.118;5.408;2023-09-12T09:34:15;101480.97;;;21.93;85.38
80128;BME280;69440;52.118;5.408;2023-09-12T09:36:53;101485.47;;;22.04;87.05
80128;BME280;69440;52.118;5.408;2023-09-12T09:39:23;101481.38;;;22.18;84.76
80128;BME280;69440;52.118;5.408;2023-09-12T09:41:51;101475.88;;;22.18;83.95
80128;BME280;69440;52.118;5.408;2023-09-12T09:44:18;101477.88;;;22.25;84.31
80128;BME280;69440;52.118;5.408;2023-09-12T09:46:50;101482.75;;;22.31;84.01
80128;BME280;69440;52.118;5.408;2023-09-12T09:49:19;101480.44;;;22.37;84.24
80128;BME280;69440;52.118;5.408;2023-09-12T09:51:46;101474.69;;;22.57;84.53
80128;BME280;69440;52.118;5.408;2023-09-12T09:54:13;101474.28;;;22.80;85.24
80128;BME280;69440;52.118;5.408;2023-09-12T09:56:50;101479.00;;;22.87;82.26
80128;BME280;69440;52.118;5.408;2023-09-12T09:59:21;101486.31;;;22.97;81.01
80128;BME280;69440;52.118;5.408;2023-09-12T10:01:50;101476.66;;;22.92;81.24
80128;BME280;69440;52.118;5.408;2023-09-12T10:04:17;101479.72;;;22.89;80.85
80128;BME280;69440;52.118;5.408;2023-09-12T10:06:46;101489.63;;;23.00;81.37
80128;BME280;69440;52.118;5.408;2023-09-12T10:09:14;101475.91;;;23.18;81.69
80128;BME280;69440;52.118;5.408;2023-09-12T10:11:42;101486.03;;;23.35;81.22
80128;BME280;69440;52.118;5.408;2023-09-12T10:14:09;101491.19;;;23.38;79.21
80128;BME280;69440;52.118;5.408;2023-09-12T10:16:48;101486.66;;;23.29;79.40
80128;BME280;69440;52.118;5.408;2023-09-12T10:19:16;101493.06;;;23.38;81.02
80128;BME280;69440;52.118;5.408;2023-09-12T10:24:29;101491.16;;;23.74;79.64
80128;BME280;69440;52.118;5.408;2023-09-12T10:26:56;101487.06;;;23.78;79.63
80128;BME280;69440;52.118;5.408;2023-09-12T10:29:23;101478.72;;;23.62;77.11
80128;BME280;69440;52.118;5.408;2023-09-12T10:31:49;101472.06;;;23.64;77.89
80128;BME280;69440;52.118;5.408;2023-09-12T10:34:16;101462.69;;;23.75;76.28
80128;BME280;69440;52.118;5.408;2023-09-12T10:36:45;101467.53;;;24.07;79.80
80128;BME280;69440;52.118;5.408;2023-09-12T10:39:14;101468.25;;;24.17;77.19
80128;BME280;69440;52.118;5.408;2023-09-12T10:41:41;101467.41;;;24.16;77.62
80128;BME280;69440;52.118;5.408;2023-09-12T10:44:10;101467.25;;;24.18;78.69
80128;BME280;69440;52.118;5.408;2023-09-12T10:46:38;101479.19;;;24.01;76.54
80128;BME280;69440;52.118;5.408;2023-09-12T10:49:14;101482.75;;;23.93;77.97
80128;BME280;69440;52.118;5.408;2023-09-12T10:51:42;101486.03;;;23.97;77.87
80128;BME280;69440;52.118;5.408;2023-09-12T10:54:12;101490.16;;;24.01;76.91
80128;BME280;69440;52.118;5.408;2023-09-12T10:56:40;101485.75;;;24.08;76.28
80128;BME280;69440;52.118;5.408;2023-09-12T11:01:34;101480.28;;;24.42;73.70
80128;BME280;69440;52.118;5.408;2023-09-12T11:06:47;101479.03;;;24.70;73.95
80128;BME280;69440;52.118;5.408;2023-09-12T11:11:55;101482.88;;;24.43;74.41
80128;BME280;69440;52.118;5.408;2023-09-12T11:14:22;101479.41;;;24.41;73.80
80128;BME280;69440;52.118;5.408;2023-09-12T11:19:45;101468.34;;;24.59;74.49
80128;BME280;69440;52.118;5.408;2023-09-12T11:22:25;101460.88;;;24.94;73.33
80128;BME280;69440;52.118;5.408;2023-09-12T11:24:53;101454.75;;;25.16;72.07
80128;BME280;69440;52.118;5.408;2023-09-12T11:27:19;101444.94;;;25.38;72.12
80128;BME280;69440;52.118;5.408;2023-09-12T11:29:46;101437.72;;;25.37;70.20
80128;BME280;69440;52.118;5.408;2023-09-12T11:32:25;101441.34;;;25.37;69.84
80128;BME280;69440;52.118;5.408;2023-09-12T11:34:53;101444.09;;;25.29;69.88
80128;BME280;69440;52.118;5.408;2023-09-12T11:37:26;101443.25;;;25.13;70.18
80128;BME280;69440;52.118;5.408;2023-09-12T11:39:54;101435.97;;;25.03;70.26
80128;BME280;69440;52.118;5.408;2023-09-12T11:42:21;101445.75;;;24.90;70.69
80128;BME280;69440;52.118;5.408;2023-09-12T11:44:50;101444.50;;;24.76;71.10
80128;BME280;69440;52.118;5.408;2023-09-12T11:47:17;101448.16;;;24.93;71.45
80128;BME280;69440;52.118;5.408;2023-09-12T11:49:44;101452.00;;;25.24;70.91
80128;BME280;69440;52.118;5.408;2023-09-12T11:52:15;101446.19;;;25.44;70.27
80128;BME280;69440;52.118;5.408;2023-09-12T11:54:46;101437.03;;;25.59;69.08
80128;BME280;69440;52.118;5.408;2023-09-12T11:57:15;101443.06;;;25.71;68.25
80128;BME280;69440;52.118;5.408;2023-09-12T11:59:43;101440.63;;;25.92;67.67
80128;BME280;69440;52.118;5.408;2023-09-12T12:02:15;101444.81;;;26.27;68.37
80128;BME280;69440;52.118;5.408;2023-09-12T12:04:42;101452.59;;;26.63;67.24
80128;BME280;69440;52.118;5.408;2023-09-12T12:07:09;101441.91;;;26.68;64.93
80128;BME280;69440;52.118;5.408;2023-09-12T12:09:36;101440.41;;;26.88;64.75
80128;BME280;69440;52.118;5.408;2023-09-12T12:12:13;101442.16;;;27.12;64.25
80128;BME280;69440;52.118;5.408;2023-09-12T12:14:41;101439.78;;;27.32;62.18
80128;BME280;69440;52.118;5.408;2023-09-12T12:17:09;101446.19;;;27.47;61.57
80128;BME280;69440;52.118;5.408;2023-09-12T12:19:37;101438.03;;;27.54;59.39
80128;BME280;69440;52.118;5.408;2023-09-12T12:22:05;101424.66;;;26.97;64.30
80128;BME280;69440;52.118;5.408;2023-09-12T12:24:40;101427.16;;;26.53;64.67
80128;BME280;69440;52.118;5.408;2023-09-12T12:27:07;101423.00;;;26.10;66.59
80128;BME280;69440;52.118;5.408;2023-09-12T12:29:35;101425.19;;;25.75;65.38
80128;BME280;69440;52.118;5.408;2023-09-12T12:32:03;101414.84;;;25.45;65.36
80128;BME280;69440;52.118;5.408;2023-09-12T12:34:31;101422.06;;;25.29;65.55
80128;BME280;69440;52.118;5.408;2023-09-12T12:37:18;101421.75;;;25.16;67.14
80128;BME280;69440;52.118;5.408;2023-09-12T12:39:45;101427.72;;;25.03;67.09
80128;BME280;69440;52.118;5.408;2023-09-12T12:42:11;101413.31;;;25.26;66.83
80128;BME280;69440;52.118;5.408;2023-09-12T12:44:38;101406.56;;;25.61;66.42
80128;BME280;69440;52.118;5.408;2023-09-12T12:47:08;101412.22;;;26.31;65.56
80128;BME280;69440;52.118;5.408;2023-09-12T12:49:39;101407.47;;;26.87;62.83
80128;BME280;69440;52.118;5.408;2023-09-12T12:52:05;101406.66;;;27.32;62.70
80128;BME280;69440;52.118;5.408;2023-09-12T12:54:35;101405.91;;;27.15;60.08
80128;BME280;69440;52.118;5.408;2023-09-12T12:57:02;101406.44;;;26.88;61.74
80128;BME280;69440;52.118;5.408;2023-09-12T12:59:29;101404.38;;;26.59;62.32
80128;BME280;69440;52.118;5.408;2023-09-12T13:02:02;101407.41;;;26.41;61.78
80128;BME280;69440;52.118;5.408;2023-09-12T13:04:36;101415.56;;;26.18;61.27
80128;BME280;69440;52.118;5.408;2023-09-12T13:07:04;101409.63;;;25.90;62.43
80128;BME280;69440;52.118;5.408;2023-09-12T13:09:32;101417.41;;;25.71;63.01